createdAt,value
2016-10-09T00:01:00.915Z,45.9
2016-10-09T00:02:11.389Z,44.07
2016-10-09T00:03:21.925Z,45.61
2016-10-09T00:04:32.419Z,43.97
2016-10-09T00:05:42.915Z,42.82
2016-10-09T00:06:53.815Z,43.97
2016-10-09T00:08:04.416Z,43.3
2016-10-09T00:09:14.965Z,45.03
2016-10-09T00:10:25.457Z,44.26
2016-10-09T00:11:35.937Z,43.78
2016-10-09T00:12:46.466Z,42.91
2016-10-09T00:13:57.058Z,43.88
2016-10-09T00:15:07.572Z,42.6
2016-10-09T00:16:18.112Z,44.14
2016-10-09T00:17:28.628Z,46.36
2016-10-09T00:18:39.124Z,47.51
2016-10-09T00:19:49.799Z,43.57
2016-10-09T00:21:00.678Z,42.12
2016-10-09T00:22:11.161Z,43.68
2016-10-09T00:23:21.669Z,43.49
2016-10-09T00:24:32.675Z,46.95
2016-10-09T00:25:43.261Z,44.24
2016-10-09T00:26:54.657Z,44.62
2016-10-09T00:28:05.606Z,43.28
2016-10-09T00:29:16.100Z,44.34
2016-10-09T00:30:26.980Z,45.68
2016-10-09T00:31:38.032Z,44.14
2016-10-09T00:32:48.494Z,45.87
2016-10-09T00:33:58.978Z,43.28
2016-10-09T00:35:09.529Z,43.08
2016-10-09T00:36:20.076Z,43.08
2016-10-09T00:37:30.658Z,43.85
2016-10-09T00:38:41.151Z,43.66
2016-10-09T00:39:51.640Z,44.24
2016-10-09T00:41:02.157Z,45.1
2016-10-09T00:42:12.656Z,44.34
2016-10-09T00:43:23.147Z,46.84
2016-10-09T00:44:33.637Z,45.29
2016-10-09T00:45:44.150Z,45.1
2016-10-09T00:46:54.659Z,46.06
2016-10-09T00:48:05.173Z,47.49
2016-10-09T00:49:15.781Z,46.81
2016-10-09T00:50:26.262Z,46.62
2016-10-09T00:51:36.738Z,46.81
2016-10-09T00:52:47.619Z,48.35
2016-10-09T00:53:58.088Z,48.74
2016-10-09T00:55:08.784Z,48.35
2016-10-09T00:56:19.342Z,46.62
2016-10-09T00:57:29.867Z,46.53
2016-10-09T00:58:40.366Z,46.81
2016-10-09T00:59:50.875Z,46.62
2016-10-09T01:01:01.518Z,48.25
2016-10-09T01:02:12.402Z,47.97
2016-10-09T01:03:22.886Z,48.74
2016-10-09T01:04:33.395Z,49.69
2016-10-09T01:05:43.890Z,48.35
2016-10-09T01:06:54.947Z,48.07
2016-10-09T01:08:05.421Z,48.93
2016-10-09T01:09:16.362Z,48.54
2016-10-09T01:10:26.909Z,48.64
2016-10-09T01:11:37.393Z,46.43
2016-10-09T01:12:47.950Z,44.99
2016-10-09T01:13:58.442Z,45.37
2016-10-09T01:15:08.956Z,48.16
2016-10-09T01:16:19.430Z,46.72
2016-10-09T01:17:29.951Z,45.76
2016-10-09T01:18:40.534Z,46.81
2016-10-09T01:19:51.015Z,46.14
2016-10-09T01:21:01.472Z,46.43
2016-10-09T01:22:11.942Z,48.45
2016-10-09T01:23:22.393Z,47.39
2016-10-09T01:24:32.947Z,47.39
2016-10-09T01:25:43.411Z,46.81
2016-10-09T01:26:53.874Z,47.97
2016-10-09T01:28:04.336Z,48.64
2016-10-09T01:29:14.798Z,49.69
2016-10-09T01:30:25.741Z,48.07
2016-10-09T01:31:36.206Z,49.22
2016-10-09T01:32:46.679Z,49.89
2016-10-09T01:33:57.135Z,49.6
2016-10-09T01:35:07.587Z,49.67
2016-10-09T01:36:18.046Z,49.87
2016-10-09T01:37:28.504Z,49.12
2016-10-09T01:38:38.980Z,50.63
2016-10-09T01:39:49.449Z,48.25
2016-10-09T01:40:59.907Z,49.1
2016-10-09T01:42:10.464Z,48.54
2016-10-09T01:43:21.293Z,48.64
2016-10-09T01:44:31.762Z,46.23
2016-10-09T01:45:42.609Z,46.72
2016-10-09T01:46:53.070Z,45.85
2016-10-09T01:48:03.628Z,45.85
2016-10-09T01:49:14.105Z,46.31
2016-10-09T01:50:26.249Z,46.04
2016-10-09T01:51:36.695Z,45.64
2016-10-09T01:52:59.914Z,47.1
2016-10-09T01:54:10.528Z,46.59
2016-10-09T01:55:21.078Z,46.81
2016-10-09T01:56:31.551Z,45.45
2016-10-09T01:57:42.038Z,46.81
2016-10-09T01:58:52.562Z,45.83
2016-10-09T02:00:03.054Z,44.99
2016-10-09T02:01:13.547Z,45.37
2016-10-09T02:02:24.068Z,46.81
2016-10-09T02:03:34.606Z,45.76
2016-10-09T02:04:45.225Z,44.99
2016-10-09T02:05:55.722Z,44.12
2016-10-09T02:07:06.203Z,45.18
2016-10-09T02:08:16.707Z,44.99
2016-10-09T02:09:27.206Z,44.89
2016-10-09T02:10:37.794Z,45.85
2016-10-09T02:11:48.272Z,46.43
2016-10-09T02:12:58.768Z,45.37
2016-10-09T02:14:09.283Z,46.31
2016-10-09T02:15:20.681Z,44.7
2016-10-09T02:16:31.267Z,45.54
2016-10-09T02:17:41.816Z,46.31
2016-10-09T02:18:52.289Z,45.66
2016-10-09T02:20:02.757Z,46.53
2016-10-09T02:21:13.246Z,47.2
2016-10-09T02:22:24.205Z,46.89
2016-10-09T02:23:34.688Z,47.94
2016-10-09T02:24:45.179Z,46.98
2016-10-09T02:25:55.735Z,47.27
2016-10-09T02:27:06.241Z,47.27
2016-10-09T02:28:16.796Z,46.98
2016-10-09T02:29:27.665Z,47.66
2016-10-09T02:30:38.199Z,46.59
2016-10-09T02:31:48.695Z,46.79
2016-10-09T02:33:11.940Z,47.94
2016-10-09T02:34:22.529Z,48.81
2016-10-09T02:35:33.498Z,48.61
2016-10-09T02:36:44.006Z,49.67
2016-10-09T02:37:54.525Z,47.94
2016-10-09T02:39:05.168Z,48.13
2016-10-09T02:40:16.502Z,48.13
2016-10-09T02:41:26.983Z,48.43
2016-10-09T02:42:37.862Z,48.13
2016-10-09T02:43:48.321Z,49.1
2016-10-09T02:44:58.838Z,48.43
2016-10-09T02:46:09.699Z,47.27
2016-10-09T02:47:20.207Z,48.61
2016-10-09T02:48:30.718Z,48.23
2016-10-09T02:49:41.195Z,49.19
2016-10-09T02:50:51.805Z,48.43
2016-10-09T02:52:02.294Z,48.61
2016-10-09T02:53:12.792Z,48.33
2016-10-09T02:54:23.299Z,48.33
2016-10-09T02:55:33.802Z,48.61
2016-10-09T02:56:44.314Z,49.57
2016-10-09T02:57:55.215Z,48.11
2016-10-09T02:59:06.141Z,48.21
2016-10-09T03:00:16.650Z,49.07
2016-10-09T03:01:27.598Z,49.48
2016-10-09T03:02:38.278Z,48.33
2016-10-09T03:03:48.758Z,48.61
2016-10-09T03:04:59.222Z,47.72
2016-10-09T03:06:09.723Z,47.94
2016-10-09T03:07:20.234Z,48.02
2016-10-09T03:08:30.912Z,48.04
2016-10-09T03:09:41.414Z,47.75
2016-10-09T03:10:51.895Z,47.94
2016-10-09T03:12:02.345Z,48.52
2016-10-09T03:13:12.886Z,48.33
2016-10-09T03:14:23.403Z,48.9
2016-10-09T03:15:34.456Z,49.77
2016-10-09T03:16:44.945Z,49.29
2016-10-09T03:17:55.428Z,50.15
2016-10-09T03:19:06.439Z,50.25
2016-10-09T03:20:17.054Z,50.15
2016-10-09T03:21:27.558Z,50.73
2016-10-09T03:22:38.071Z,51.09
2016-10-09T03:23:48.536Z,51.11
2016-10-09T03:24:59.417Z,51.57
2016-10-09T03:26:10.015Z,51.28
2016-10-09T03:27:20.512Z,52.36
2016-10-09T03:28:31.380Z,52.91
2016-10-09T03:29:41.862Z,53.11
2016-10-09T03:30:52.831Z,53.01
2016-10-09T03:32:03.404Z,53.49
2016-10-09T03:33:13.917Z,53.49
2016-10-09T03:34:24.431Z,54.06
2016-10-09T03:35:34.925Z,53.97
2016-10-09T03:36:45.450Z,54.45
2016-10-09T03:37:55.971Z,55.22
2016-10-09T03:39:06.444Z,55.32
2016-10-09T03:40:17.408Z,55.6
2016-10-09T03:41:27.901Z,55.02
2016-10-09T03:42:38.410Z,55.6
2016-10-09T03:43:49.527Z,55.41
2016-10-09T03:45:00.468Z,55.51
2016-10-09T03:46:10.984Z,55.41
2016-10-09T03:47:21.476Z,55.69
2016-10-09T03:48:32.009Z,55.99
2016-10-09T03:49:42.630Z,56.08
2016-10-09T03:50:53.158Z,55.89
2016-10-09T03:52:03.643Z,55.51
2016-10-09T03:53:14.166Z,55.89
2016-10-09T03:54:25.166Z,56.08
2016-10-09T03:55:35.719Z,56.44
2016-10-09T03:56:46.232Z,56.82
2016-10-09T03:57:56.714Z,56.24
2016-10-09T03:59:07.706Z,55.86
2016-10-09T04:00:18.259Z,56.73
2016-10-09T04:01:28.774Z,57.21
2016-10-09T04:02:39.262Z,57.11
2016-10-09T04:03:49.739Z,57.21
2016-10-09T04:05:00.257Z,56.82
2016-10-09T04:06:10.713Z,57.4
2016-10-09T04:07:21.308Z,57.4
2016-10-09T04:08:32.273Z,57.21
2016-10-09T04:09:42.775Z,57.5
2016-10-09T04:10:53.246Z,56.82
2016-10-09T04:12:03.757Z,56.63
2016-10-09T04:13:14.881Z,55.77
2016-10-09T04:14:25.358Z,56.15
2016-10-09T04:15:35.895Z,56.53
2016-10-09T04:16:46.780Z,56.82
2016-10-09T04:17:57.281Z,57.11
2016-10-09T04:19:08.418Z,57.01
2016-10-09T04:20:18.891Z,57.59
2016-10-09T04:21:29.359Z,57.4
2016-10-09T04:22:40.347Z,57.5
2016-10-09T04:23:50.849Z,57.4
2016-10-09T04:25:01.359Z,57.11
2016-10-09T04:26:11.852Z,57.21
2016-10-09T04:27:22.392Z,57.21
2016-10-09T04:28:32.926Z,57.5
2016-10-09T04:29:44.420Z,57.3
2016-10-09T04:30:55.023Z,57.88
2016-10-09T04:32:05.533Z,57.97
2016-10-09T04:33:16.576Z,58.36
2016-10-09T04:34:27.094Z,57.95
2016-10-09T04:35:37.579Z,58.17
2016-10-09T04:36:48.146Z,57.88
2016-10-09T04:37:58.661Z,57.75
2016-10-09T04:39:09.158Z,57.56
2016-10-09T04:40:20.103Z,57.21
2016-10-09T04:41:30.676Z,57.68
2016-10-09T04:42:41.287Z,56.92
2016-10-09T04:43:51.813Z,56.34
2016-10-09T04:45:02.340Z,55.96
2016-10-09T04:46:12.913Z,57.01
2016-10-09T04:47:23.445Z,55.64
2016-10-09T04:48:33.987Z,55.67
2016-10-09T04:49:44.501Z,56.51
2016-10-09T04:50:55.005Z,56.51
2016-10-09T04:52:05.528Z,55.83
2016-10-09T04:53:16.084Z,54.78
2016-10-09T04:54:26.616Z,55.83
2016-10-09T04:55:37.165Z,54.88
2016-10-09T04:56:47.755Z,54.01
2016-10-09T04:57:58.299Z,54.33
2016-10-09T04:59:08.839Z,54.71
2016-10-09T05:00:19.489Z,55.19
2016-10-09T05:01:30.015Z,55.19
2016-10-09T05:02:53.304Z,55.26
2016-10-09T05:04:03.948Z,55.55
2016-10-09T05:05:14.507Z,56.22
2016-10-09T05:06:26.685Z,56.79
2016-10-09T05:07:37.269Z,57.28
2016-10-09T05:08:47.789Z,57.08
2016-10-09T05:09:58.343Z,56.51
2016-10-09T05:11:08.922Z,57.08
2016-10-09T05:12:19.426Z,57.37
2016-10-09T05:13:29.940Z,58.14
2016-10-09T05:14:40.452Z,57.85
2016-10-09T05:15:50.979Z,57.95
2016-10-09T05:17:01.656Z,58.62
2016-10-09T05:18:12.226Z,57.72
2016-10-09T05:19:22.795Z,57.92
2016-10-09T05:20:33.331Z,57.72
2016-10-09T05:21:43.845Z,58.71
2016-10-09T05:22:54.497Z,58.14
2016-10-09T05:24:05.045Z,57.95
2016-10-09T05:25:15.564Z,58.71
2016-10-09T05:26:26.100Z,58.62
2016-10-09T05:27:36.617Z,59.16
2016-10-09T05:28:47.311Z,58.78
2016-10-09T05:29:57.820Z,58.87
2016-10-09T05:31:08.355Z,58.69
2016-10-09T05:32:18.934Z,58.78
2016-10-09T05:33:29.490Z,59.74
2016-10-09T05:34:40.427Z,59.06
2016-10-09T05:35:50.966Z,59.16
2016-10-09T05:37:01.493Z,59.64
2016-10-09T05:38:11.987Z,59.16
2016-10-09T05:39:22.527Z,59.36
2016-10-09T05:40:33.573Z,59.55
2016-10-09T05:41:44.071Z,59.26
2016-10-09T05:42:54.567Z,60.12
2016-10-09T05:44:05.140Z,59.93
2016-10-09T05:45:15.706Z,60.6
2016-10-09T05:46:26.261Z,59.8
2016-10-09T05:47:36.796Z,59.13
2016-10-09T05:48:47.357Z,58.59
2016-10-09T05:49:57.889Z,59.06
2016-10-09T05:51:08.409Z,58.97
2016-10-09T05:52:19.867Z,59.06
2016-10-09T05:53:30.754Z,58.59
2016-10-09T05:54:41.310Z,58.78
2016-10-09T05:55:51.879Z,59.06
2016-10-09T05:57:02.429Z,58.97
2016-10-09T05:58:13.133Z,58.97
2016-10-09T05:59:23.658Z,58.87
2016-10-09T06:00:34.158Z,58.78
2016-10-09T06:01:44.706Z,58.69
2016-10-09T06:02:55.201Z,58.11
2016-10-09T06:04:06.456Z,58.69
2016-10-09T06:05:17.408Z,58.69
2016-10-09T06:06:27.927Z,58.39
2016-10-09T06:07:38.435Z,58.59
2016-10-09T06:08:49.011Z,58.59
2016-10-09T06:09:59.537Z,58.87
2016-10-09T06:11:10.078Z,58.59
2016-10-09T06:12:20.617Z,58.49
2016-10-09T06:13:31.155Z,59.06
2016-10-09T06:14:41.705Z,57.72
2016-10-09T06:15:52.328Z,58.49
2016-10-09T06:17:02.842Z,58.49
2016-10-09T06:18:13.430Z,58.3
2016-10-09T06:19:23.956Z,58.97
2016-10-09T06:20:34.520Z,58.46
2016-10-09T06:21:45.123Z,58.56
2016-10-09T06:22:56.019Z,59.04
2016-10-09T06:24:06.544Z,58.75
2016-10-09T06:25:17.547Z,59.04
2016-10-09T06:26:28.040Z,59.61
2016-10-09T06:27:38.598Z,59.52
2016-10-09T06:28:49.123Z,59.61
2016-10-09T06:29:59.593Z,59.9
2016-10-09T06:31:10.070Z,59.8
2016-10-09T06:32:20.531Z,59.33
2016-10-09T06:33:31.117Z,59.8
2016-10-09T06:34:41.593Z,59.9
2016-10-09T06:35:52.144Z,60.19
2016-10-09T06:37:03.121Z,59.9
2016-10-09T06:38:13.604Z,60.57
2016-10-09T06:39:24.141Z,60
2016-10-09T06:40:34.656Z,60.73
2016-10-09T06:41:45.161Z,60.86
2016-10-09T06:42:55.629Z,61.69
2016-10-09T06:44:06.122Z,61.11
2016-10-09T06:45:16.755Z,61.5
2016-10-09T06:46:27.278Z,61.5
2016-10-09T06:47:37.753Z,61.11
2016-10-09T06:48:48.306Z,59.77
2016-10-09T06:49:58.784Z,60.93
2016-10-09T06:51:09.361Z,60.35
2016-10-09T06:52:19.878Z,60.16
2016-10-09T06:53:30.401Z,60.54
2016-10-09T06:54:40.882Z,59.3
2016-10-09T06:55:51.322Z,59.77
2016-10-09T06:57:01.875Z,59.52
2016-10-09T06:58:12.323Z,59.9
2016-10-09T06:59:22.768Z,60.06
2016-10-09T07:00:33.225Z,59.77
2016-10-09T07:01:43.682Z,60.93
2016-10-09T07:02:54.525Z,60.06
2016-10-09T07:04:04.973Z,60.16
2016-10-09T07:05:15.427Z,60.06
2016-10-09T07:06:25.884Z,59.61
2016-10-09T07:07:36.729Z,59.61
2016-10-09T07:08:47.278Z,59.52
2016-10-09T07:09:57.736Z,59.61
2016-10-09T07:11:08.187Z,59.42
2016-10-09T07:12:18.642Z,59.42
2016-10-09T07:13:29.104Z,59.77
2016-10-09T07:14:39.658Z,59.3
2016-10-09T07:15:50.119Z,59.3
2016-10-09T07:17:00.562Z,59.58
2016-10-09T07:18:11.028Z,59.39
2016-10-09T07:19:21.488Z,59.87
2016-10-09T07:20:32.061Z,59.68
2016-10-09T07:21:42.539Z,60.06
2016-10-09T07:22:52.990Z,59.68
2016-10-09T07:24:03.449Z,59.87
2016-10-09T07:25:13.902Z,59.87
2016-10-09T07:26:24.351Z,59.87
2016-10-09T07:27:34.807Z,59.97
2016-10-09T07:28:45.311Z,59.97
2016-10-09T07:29:55.811Z,60.06
2016-10-09T07:31:06.305Z,59.97
2016-10-09T07:32:16.942Z,60.64
2016-10-09T07:33:27.433Z,60.73
2016-10-09T07:34:37.925Z,61.11
2016-10-09T07:35:48.470Z,61.02
2016-10-09T07:36:58.966Z,61.31
2016-10-09T07:38:09.521Z,61.21
2016-10-09T07:39:20.010Z,61.88
2016-10-09T07:40:30.492Z,61.98
2016-10-09T07:41:40.948Z,62.17
2016-10-09T07:42:51.427Z,62.26
2016-10-09T07:44:02.417Z,62.55
2016-10-09T07:45:12.918Z,62.65
2016-10-09T07:46:23.400Z,62.46
2016-10-09T07:47:33.881Z,62.65
2016-10-09T07:48:44.406Z,63.03
2016-10-09T07:49:55.477Z,63.22
2016-10-09T07:51:05.938Z,63.19
2016-10-09T07:52:16.423Z,63.1
2016-10-09T07:53:26.914Z,62.46
2016-10-09T07:54:37.465Z,62.36
2016-10-09T07:55:48.026Z,62.26
2016-10-09T07:56:58.521Z,62.36
2016-10-09T07:58:08.986Z,62.65
2016-10-09T07:59:19.480Z,62.74
2016-10-09T08:00:29.946Z,62.84
2016-10-09T08:01:40.395Z,63.42
2016-10-09T08:02:50.856Z,63.7
2016-10-09T08:04:01.306Z,63.13
2016-10-09T08:05:11.756Z,63.13
2016-10-09T08:06:22.200Z,63.32
2016-10-09T08:07:32.776Z,62.74
2016-10-09T08:08:43.232Z,62.65
2016-10-09T08:09:53.687Z,63.51
2016-10-09T08:11:04.158Z,63.6
2016-10-09T08:12:15.106Z,63.51
2016-10-09T08:13:26.042Z,62.93
2016-10-09T08:14:36.491Z,63.39
2016-10-09T08:15:46.964Z,63.6
2016-10-09T08:16:57.417Z,63.99
2016-10-09T08:18:07.867Z,63.67
2016-10-09T08:19:18.334Z,63.76
2016-10-09T08:20:28.783Z,64.15
2016-10-09T08:21:39.605Z,64.43
2016-10-09T08:22:50.550Z,64.82
2016-10-09T08:24:01.025Z,65.11
2016-10-09T08:25:11.973Z,65.01
2016-10-09T08:26:22.431Z,65.58
2016-10-09T08:27:32.876Z,65.88
2016-10-09T08:28:43.330Z,66.06
2016-10-09T08:29:53.783Z,65.81
2016-10-09T08:31:04.350Z,66.93
2016-10-09T08:32:14.799Z,67.21
2016-10-09T08:33:25.264Z,67.05
2016-10-09T08:34:35.716Z,68.21
2016-10-09T08:35:46.171Z,68.68
2016-10-09T08:36:57.147Z,69.35
2016-10-09T08:38:07.648Z,69.64
2016-10-09T08:39:18.102Z,69.74
2016-10-09T08:40:28.608Z,69.83
2016-10-09T08:41:39.067Z,70.21
2016-10-09T08:42:49.589Z,69.93
2016-10-09T08:44:00.047Z,70.79
2016-10-09T08:45:10.513Z,70.47
2016-10-09T08:46:20.994Z,70.41
2016-10-09T08:47:31.916Z,71.37
2016-10-09T08:48:42.541Z,71.62
2016-10-09T08:49:53.019Z,71.52
2016-10-09T08:51:03.538Z,72.09
2016-10-09T08:52:14.299Z,72
2016-10-09T08:53:24.789Z,72.32
2016-10-09T08:54:35.895Z,72.77
2016-10-09T08:55:46.368Z,73.15
2016-10-09T08:56:56.908Z,73.44
2016-10-09T08:58:07.395Z,73.05
2016-10-09T08:59:17.885Z,73.47
2016-10-09T09:00:28.490Z,73.54
2016-10-09T09:01:38.987Z,74.4
2016-10-09T09:02:49.481Z,74.82
2016-10-09T09:04:00.061Z,74.87
2016-10-09T09:05:10.578Z,75.35
2016-10-09T09:06:21.091Z,75.64
2016-10-09T09:07:31.601Z,75.83
2016-10-09T09:08:42.109Z,76.4
2016-10-09T09:09:52.596Z,76.69
2016-10-09T09:11:03.128Z,76.79
2016-10-09T09:12:13.717Z,76.79
2016-10-09T09:13:24.648Z,77.17
2016-10-09T09:14:35.667Z,77.5
2016-10-09T09:15:46.148Z,77.84
2016-10-09T09:16:56.630Z,77.97
2016-10-09T09:18:08.134Z,78.07
2016-10-09T09:19:18.680Z,78.36
2016-10-09T09:20:29.572Z,78.36
2016-10-09T09:21:40.060Z,78.45
2016-10-09T09:22:50.575Z,78.36
2016-10-09T09:24:01.168Z,78.07
2016-10-09T09:25:11.677Z,78.07
2016-10-09T09:26:22.160Z,77.69
2016-10-09T09:27:32.666Z,77.63
2016-10-09T09:28:43.610Z,78.4
2016-10-09T09:29:54.058Z,77.63
2016-10-09T09:31:04.550Z,77.63
2016-10-09T09:32:15.055Z,78.4
2016-10-09T09:33:25.559Z,78.02
2016-10-09T09:34:36.082Z,77.53
2016-10-09T09:35:46.774Z,77.92
2016-10-09T09:36:57.238Z,77.09
2016-10-09T09:38:07.769Z,76.62
2016-10-09T09:39:18.260Z,76.17
2016-10-09T09:40:28.798Z,75.6
2016-10-09T09:41:39.442Z,76.27
2016-10-09T09:42:49.899Z,76.27
2016-10-09T09:44:00.371Z,76.46
2016-10-09T09:45:10.901Z,75.98
2016-10-09T09:46:21.413Z,76.37
2016-10-09T09:47:31.930Z,75.89
2016-10-09T09:48:42.441Z,75.79
2016-10-09T09:49:53.015Z,74.73
2016-10-09T09:51:03.575Z,74.1
2016-10-09T09:52:14.550Z,71.98
2016-10-09T09:53:25.226Z,69.34
2016-10-09T09:54:35.806Z,66.33
2016-10-09T09:55:46.361Z,62.64
2016-10-09T09:56:56.914Z,60.13
2016-10-09T09:58:07.440Z,58.33
2016-10-09T09:59:18.050Z,57.75
2016-10-09T10:00:28.565Z,56.04
2016-10-09T10:01:39.092Z,55.49
2016-10-09T10:02:49.672Z,54.62
2016-10-09T10:04:00.193Z,55.52
2016-10-09T10:05:11.199Z,56.04
2016-10-09T10:06:22.141Z,55.3
2016-10-09T10:07:32.664Z,54.82
2016-10-09T10:08:43.243Z,53.69
2016-10-09T10:09:53.803Z,52.07
2016-10-09T10:11:04.351Z,50.26
2016-10-09T10:12:14.880Z,48.95
2016-10-09T10:13:25.425Z,49.92
2016-10-09T10:14:35.983Z,50.09
2016-10-09T10:15:46.455Z,49.05
2016-10-09T10:16:57.025Z,48.27
2016-10-09T10:18:07.489Z,46.94
2016-10-09T10:19:17.969Z,47.36
2016-10-09T10:20:28.436Z,47.26
2016-10-09T10:21:38.891Z,46.97
2016-10-09T10:22:49.466Z,46
2016-10-09T10:23:59.924Z,45.15
2016-10-09T10:25:10.392Z,45.17
2016-10-09T10:26:20.848Z,45.07
2016-10-09T10:27:31.701Z,44.2
2016-10-09T10:28:42.264Z,44.03
2016-10-09T10:29:52.735Z,43.26
2016-10-09T10:31:03.201Z,43.16
2016-10-09T10:32:13.668Z,42.4
2016-10-09T10:33:24.127Z,41.47
2016-10-09T10:34:34.692Z,42.71
2016-10-09T10:35:45.164Z,43.47
2016-10-09T10:36:56.130Z,41.92
2016-10-09T10:38:06.611Z,41.55
2016-10-09T10:39:17.075Z,40.99
2016-10-09T10:40:27.636Z,40.89
2016-10-09T10:41:38.107Z,41.47
2016-10-09T10:42:48.600Z,40.99
2016-10-09T10:43:59.071Z,40.79
2016-10-09T10:45:09.537Z,40.42
2016-10-09T10:46:20.600Z,40.99
2016-10-09T10:47:31.075Z,39.62
2016-10-09T10:48:41.620Z,39.45
2016-10-09T10:49:52.176Z,39.16
2016-10-09T10:51:02.702Z,40.03
2016-10-09T10:52:13.633Z,39.75
2016-10-09T10:53:24.204Z,38.67
2016-10-09T10:54:34.773Z,39.37
2016-10-09T10:55:45.314Z,40.79
2016-10-09T10:56:56.667Z,41.36
2016-10-09T10:58:07.429Z,40.39
2016-10-09T10:59:17.985Z,38.5
2016-10-09T11:00:28.533Z,38.21
2016-10-09T11:01:39.118Z,37.46
2016-10-09T11:02:49.641Z,37.85
2016-10-09T11:04:00.349Z,37.06
2016-10-09T11:05:10.898Z,37.66
2016-10-09T11:06:21.484Z,36.96
2016-10-09T11:07:32.021Z,37.26
2016-10-09T11:08:42.609Z,37.26
2016-10-09T11:09:53.176Z,37.06
2016-10-09T11:11:03.719Z,36.2
2016-10-09T11:12:14.234Z,34.68
2016-10-09T11:13:24.787Z,32.86
2016-10-09T11:14:35.366Z,31.43
2016-10-09T11:15:46.003Z,30.48
2016-10-09T11:16:57.014Z,30.59
2016-10-09T11:18:07.924Z,30.38
2016-10-09T11:19:18.453Z,30.27
2016-10-09T11:20:29.025Z,29.52
2016-10-09T11:21:39.619Z,30
2016-10-09T11:22:50.129Z,29.04
2016-10-09T11:24:00.649Z,29.16
2016-10-09T11:25:11.144Z,28.86
2016-10-09T11:26:21.680Z,30.41
2016-10-09T11:27:32.300Z,30.87
2016-10-09T11:28:42.842Z,30.45
2016-10-09T11:29:53.374Z,30.57
2016-10-09T11:31:03.860Z,32.31
2016-10-09T11:32:14.335Z,31.8
2016-10-09T11:33:24.994Z,32.96
2016-10-09T11:34:35.489Z,32.65
2016-10-09T11:35:46.012Z,32.86
2016-10-09T11:36:56.498Z,33.82
2016-10-09T11:38:07.518Z,33.23
2016-10-09T11:39:18.137Z,32.28
2016-10-09T11:40:28.681Z,31.8
2016-10-09T11:41:39.192Z,31.12
2016-10-09T11:42:49.731Z,30.35
2016-10-09T11:44:00.229Z,28.63
2016-10-09T11:45:10.740Z,27.78
2016-10-09T11:46:21.262Z,26.83
2016-10-09T11:47:31.803Z,26.93
2016-10-09T11:48:42.304Z,25.59
2016-10-09T11:49:52.780Z,24.43
2016-10-09T11:51:03.386Z,24.26
2016-10-09T11:52:13.930Z,23.75
2016-10-09T11:53:24.402Z,24.24
2016-10-09T11:54:34.905Z,24.84
2016-10-09T11:55:45.441Z,26.67
2016-10-09T11:56:56.091Z,28.86
2016-10-09T11:58:06.586Z,29.5
2016-10-09T11:59:17.505Z,28.05
2016-10-09T12:00:27.993Z,27.49
2016-10-09T12:01:38.866Z,27.31
2016-10-09T12:02:49.463Z,28
2016-10-09T12:04:00.353Z,28.96
2016-10-09T12:05:10.861Z,30.4
2016-10-09T12:06:21.386Z,31.54
2016-10-09T12:07:31.917Z,32.21
2016-10-09T12:08:42.920Z,32.09
2016-10-09T12:09:53.441Z,33.15
2016-10-09T12:11:03.961Z,33.04
2016-10-09T12:12:14.465Z,31.96
2016-10-09T12:13:24.964Z,31.79
2016-10-09T12:14:35.949Z,32.19
2016-10-09T12:15:46.846Z,31.99
2016-10-09T12:16:57.327Z,32.29
2016-10-09T12:18:07.809Z,31.9
2016-10-09T12:19:18.282Z,31.12
2016-10-09T12:20:28.870Z,30.47
2016-10-09T12:21:39.441Z,30.19
2016-10-09T12:22:49.933Z,29.6
2016-10-09T12:24:00.459Z,29.8
2016-10-09T12:25:10.993Z,30.3
2016-10-09T12:26:21.622Z,28.64
2016-10-09T12:27:32.113Z,29.04
2016-10-09T12:28:42.587Z,28.18
2016-10-09T12:29:53.051Z,27.34
2016-10-09T12:31:03.533Z,27.81
2016-10-09T12:32:14.008Z,27.9
2016-10-09T12:33:24.482Z,27.42
2016-10-09T12:34:34.976Z,27.03
2016-10-09T12:35:45.473Z,26.27
2016-10-09T12:36:55.956Z,26.07
2016-10-09T12:38:06.545Z,26.67
2016-10-09T12:39:17.040Z,26.38
2016-10-09T12:40:27.513Z,26.56
2016-10-09T12:41:37.986Z,26.73
2016-10-09T12:42:48.484Z,26.64
2016-10-09T12:43:59.067Z,27.83
2016-10-09T12:45:09.538Z,27.34
2016-10-09T12:46:20.014Z,26.82
2016-10-09T12:47:30.488Z,27.91
2016-10-09T12:48:40.957Z,27.8
2016-10-09T12:49:51.518Z,27.78
2016-10-09T12:51:01.993Z,26.9
2016-10-09T12:52:12.481Z,27.5
2016-10-09T12:53:22.947Z,27.8
2016-10-09T12:54:33.441Z,26.64
2016-10-09T12:55:44.297Z,25.88
2016-10-09T12:56:54.768Z,25.89
2016-10-09T12:58:05.250Z,24.05
2016-10-09T12:59:15.738Z,23.39
2016-10-09T13:00:26.248Z,24.06
2016-10-09T13:01:36.891Z,23.67
2016-10-09T13:02:47.411Z,25.35
2016-10-09T13:03:57.918Z,24.82
2016-10-09T13:05:08.431Z,25.22
2016-10-09T13:06:18.970Z,25.02
2016-10-09T13:07:29.627Z,26.09
2016-10-09T13:08:40.152Z,26.25
2016-10-09T13:09:50.727Z,26.55
2016-10-09T13:11:01.260Z,26.75
2016-10-09T13:12:11.785Z,27.7
2016-10-09T13:13:22.377Z,27.9
2016-10-09T13:14:32.885Z,28.85
2016-10-09T13:15:43.390Z,29.9
2016-10-09T13:16:53.895Z,28.82
2016-10-09T13:18:04.448Z,28.94
2016-10-09T13:19:14.982Z,28.08
2016-10-09T13:20:25.542Z,28.94
2016-10-09T13:21:36.082Z,28.65
2016-10-09T13:22:46.610Z,26.72
2016-10-09T13:23:57.120Z,26.06
2016-10-09T13:25:07.754Z,25.49
2016-10-09T13:26:18.315Z,25.78
2016-10-09T13:27:28.818Z,25.89
2016-10-09T13:28:39.319Z,25.02
2016-10-09T13:29:49.824Z,25.79
2016-10-09T13:31:00.822Z,26.55
2016-10-09T13:32:12.102Z,27.11
2016-10-09T13:33:22.590Z,27.59
2016-10-09T13:34:33.133Z,28.05
2016-10-09T13:35:43.645Z,28.91
2016-10-09T13:36:54.362Z,29.69
2016-10-09T13:38:04.916Z,29.5
2016-10-09T13:39:15.482Z,28.05
2016-10-09T13:40:25.964Z,27.49
2016-10-09T13:41:36.466Z,27.61
2016-10-09T13:42:47.030Z,27.69
2016-10-09T13:43:57.550Z,28.75
2016-10-09T13:45:08.073Z,27.76
2016-10-09T13:46:19.005Z,26.5
2016-10-09T13:47:29.861Z,26.43
2016-10-09T13:48:40.452Z,26.05
2016-10-09T13:49:50.960Z,25.57
2016-10-09T13:51:01.498Z,26.35
2016-10-09T13:52:12.079Z,26.73
2016-10-09T13:53:22.623Z,28.47
2016-10-09T13:54:33.193Z,29.14
2016-10-09T13:55:43.703Z,28.74
2016-10-09T13:56:54.211Z,28.54
2016-10-09T13:58:05.080Z,27.97
2016-10-09T13:59:15.544Z,28.38
2016-10-09T14:00:26.274Z,26.44
2016-10-09T14:01:37.151Z,26.44
2016-10-09T14:02:47.652Z,26.06
2016-10-09T14:03:58.175Z,25.49
2016-10-09T14:05:08.678Z,26.17
2016-10-09T14:06:19.291Z,25.85
2016-10-09T14:07:30.188Z,26.05
2016-10-09T14:08:40.748Z,25.66
2016-10-09T14:09:51.261Z,26.62
2016-10-09T14:11:01.792Z,26.53
2016-10-09T14:12:12.298Z,25.84
2016-10-09T14:13:22.820Z,26.04
2016-10-09T14:14:33.727Z,25.94
2016-10-09T14:15:44.222Z,26.43
2016-10-09T14:16:54.690Z,26.23
2016-10-09T14:18:05.264Z,27.01
2016-10-09T14:19:15.810Z,27.1
2016-10-09T14:20:26.346Z,27.09
2016-10-09T14:21:36.864Z,28.54
2016-10-09T14:22:47.367Z,29.69
2016-10-09T14:23:57.968Z,29.57
2016-10-09T14:25:08.472Z,29.57
2016-10-09T14:26:18.975Z,29.08
2016-10-09T14:27:29.441Z,29.75
2016-10-09T14:28:40.297Z,28.81
2016-10-09T14:29:50.886Z,29.6
2016-10-09T14:31:01.422Z,28.65
2016-10-09T14:32:11.963Z,26.62
2016-10-09T14:33:22.483Z,25.27
2016-10-09T14:34:32.957Z,24.41
2016-10-09T14:35:43.439Z,24.9
2016-10-09T14:36:53.988Z,25.66
2016-10-09T14:38:04.510Z,24.98
2016-10-09T14:39:15.012Z,24.21
2016-10-09T14:40:25.913Z,24.53
2016-10-09T14:41:36.655Z,23.66
2016-10-09T14:42:47.661Z,23.47
2016-10-09T14:43:58.166Z,24.93
2016-10-09T14:45:08.702Z,25.99
2016-10-09T14:46:19.651Z,25.79
2016-10-09T14:47:30.291Z,25.79
2016-10-09T14:48:41.185Z,25.79
2016-10-09T14:49:51.683Z,26.46
2016-10-09T14:51:02.224Z,26.75
2016-10-09T14:52:12.738Z,27.5
2016-10-09T14:53:23.380Z,27.61
2016-10-09T14:54:33.863Z,28.09
2016-10-09T14:55:44.345Z,28.18
2016-10-09T14:56:54.852Z,28.85
2016-10-09T14:58:05.364Z,28.93
2016-10-09T14:59:15.982Z,30.38
2016-10-09T15:00:27.026Z,31.15
2016-10-09T15:01:37.544Z,31.13
2016-10-09T15:02:48.076Z,31.13
2016-10-09T15:03:58.990Z,31.22
2016-10-09T15:05:09.576Z,32.58
2016-10-09T15:06:20.482Z,33.25
2016-10-09T15:07:31.030Z,33.06
2016-10-09T15:08:42.101Z,32.68
2016-10-09T15:09:52.615Z,31.99
2016-10-09T15:11:03.210Z,31.13
2016-10-09T15:12:13.763Z,31.52
2016-10-09T15:13:24.283Z,32.68